createdAt,value
2018-04-10T00:01:46.580Z,18.03
2018-04-10T00:02:46.576Z,18.02
2018-04-10T00:04:39.491Z,17.97
2018-04-10T00:05:39.525Z,17.81
2018-04-10T00:07:32.490Z,17.81
2018-04-10T00:08:32.448Z,17.81
2018-04-10T00:10:25.343Z,17.77
2018-04-10T00:11:25.349Z,17.71
2018-04-10T00:13:18.260Z,17.70
2018-04-10T00:14:18.285Z,17.56
2018-04-10T00:16:11.212Z,17.58
2018-04-10T00:17:11.240Z,17.43
2018-04-10T00:19:04.168Z,17.41
2018-04-10T00:20:04.183Z,17.41
2018-04-10T00:21:57.145Z,17.31
2018-04-10T00:22:57.065Z,17.31
2018-04-10T00:24:49.986Z,17.28
2018-04-10T00:25:50.038Z,17.30
2018-04-10T00:27:42.992Z,17.26
2018-04-10T00:28:42.983Z,17.26
2018-04-10T00:30:35.845Z,17.33
2018-04-10T00:31:35.901Z,17.34
2018-04-10T00:33:28.828Z,17.30
2018-04-10T00:34:28.831Z,17.25
2018-04-10T00:36:21.771Z,17.18
2018-04-10T00:37:21.760Z,17.12
2018-04-10T00:39:14.657Z,17.18
2018-04-10T00:40:14.678Z,17.15
2018-04-10T00:42:07.700Z,17.15
2018-04-10T00:43:07.652Z,17.04
2018-04-10T00:45:00.557Z,17.06
2018-04-10T00:46:00.557Z,16.96
2018-04-10T00:47:53.471Z,17.00
2018-04-10T00:48:53.500Z,16.94
2018-04-10T00:50:46.419Z,16.93
2018-04-10T00:51:46.400Z,16.97
2018-04-10T00:53:39.375Z,16.96
2018-04-10T00:54:39.326Z,16.96
2018-04-10T00:56:32.254Z,16.79
2018-04-10T00:57:32.258Z,16.82
2018-04-10T00:59:25.167Z,16.82
2018-04-10T01:00:25.188Z,16.76
2018-04-10T01:02:18.118Z,16.79
2018-04-10T01:03:18.133Z,16.75
2018-04-10T01:05:11.032Z,16.78
2018-04-10T01:06:11.053Z,16.73
2018-04-10T01:08:04.166Z,16.64
2018-04-10T01:09:04.171Z,16.68
2018-04-10T01:10:57.082Z,16.61
2018-04-10T01:11:57.105Z,16.57
2018-04-10T01:13:50.033Z,16.50
2018-04-10T01:14:50.034Z,16.48
2018-04-10T01:16:42.982Z,16.48
2018-04-10T01:17:42.966Z,16.50
2018-04-10T01:19:35.893Z,16.42
2018-04-10T01:20:35.927Z,16.34
2018-04-10T01:22:28.934Z,16.45
2018-04-10T01:23:28.881Z,16.38
2018-04-10T01:25:21.801Z,16.43
2018-04-10T01:26:21.780Z,16.33
2018-04-10T01:28:14.749Z,16.31
2018-04-10T01:29:14.692Z,16.43
2018-04-10T01:31:07.636Z,16.41
2018-04-10T01:32:07.670Z,16.50
2018-04-10T01:34:00.576Z,16.43
2018-04-10T01:35:00.585Z,16.43
2018-04-10T01:36:53.515Z,16.52
2018-04-10T01:37:53.527Z,16.52
2018-04-10T01:39:47.501Z,16.43
2018-04-10T01:40:47.443Z,16.52
2018-04-10T01:42:40.333Z,16.48
2018-04-10T01:43:40.375Z,16.42
2018-04-10T01:45:34.291Z,16.49
2018-04-10T01:46:34.330Z,16.42
2018-04-10T01:48:27.284Z,16.56
2018-04-10T01:49:27.247Z,16.41
2018-04-10T01:51:20.140Z,16.30
2018-04-10T01:52:20.167Z,16.21
2018-04-10T01:54:13.150Z,16.23
2018-04-10T01:55:13.100Z,16.27
2018-04-10T01:57:05.993Z,16.24
2018-04-10T01:58:06.005Z,16.20
2018-04-10T01:59:58.983Z,16.07
2018-04-10T02:00:58.942Z,16.01
2018-04-10T02:02:51.950Z,16.07
2018-04-10T02:03:51.896Z,16.02
2018-04-10T02:05:44.784Z,15.96
2018-04-10T02:06:44.792Z,15.87
2018-04-10T02:08:37.770Z,15.86
2018-04-10T02:09:37.708Z,15.83
2018-04-10T02:11:30.612Z,15.75
2018-04-10T02:12:30.655Z,15.75
2018-04-10T02:14:23.554Z,15.78
2018-04-10T02:15:23.562Z,15.71
2018-04-10T02:17:16.466Z,15.65
2018-04-10T02:18:16.490Z,15.57
2018-04-10T02:20:09.418Z,15.46
2018-04-10T02:21:09.422Z,15.53
2018-04-10T02:23:02.347Z,15.46
2018-04-10T02:24:02.352Z,15.36
2018-04-10T02:25:55.256Z,15.38
2018-04-10T02:26:55.280Z,15.35
2018-04-10T02:28:48.210Z,15.29
2018-04-10T02:29:48.212Z,15.20
2018-04-10T02:31:41.125Z,15.19
2018-04-10T02:32:41.155Z,15.10
2018-04-10T02:34:34.071Z,15.14
2018-04-10T02:35:34.072Z,15.09
2018-04-10T02:37:26.982Z,15.09
2018-04-10T02:38:27.001Z,15.13
2018-04-10T02:40:19.927Z,15.21
2018-04-10T02:41:19.927Z,15.13
2018-04-10T02:43:12.858Z,15.07
2018-04-10T02:44:12.857Z,15.07
2018-04-10T02:46:05.763Z,15.14
2018-04-10T02:47:05.787Z,15.20
2018-04-10T02:48:58.709Z,15.19
2018-04-10T02:49:58.717Z,15.10
2018-04-10T02:51:51.620Z,15.20
2018-04-10T02:52:51.641Z,15.20
2018-04-10T02:54:44.570Z,15.09
2018-04-10T02:55:44.571Z,15.01
2018-04-10T02:57:37.475Z,14.98
2018-04-10T02:58:37.498Z,14.96
2018-04-10T03:00:30.420Z,14.98
2018-04-10T03:01:30.424Z,15.01
2018-04-10T03:03:23.351Z,14.94
2018-04-10T03:04:23.363Z,14.89
2018-04-10T03:06:16.263Z,14.92
2018-04-10T03:07:16.284Z,14.84
2018-04-10T03:09:09.207Z,14.75
2018-04-10T03:10:09.212Z,14.72
2018-04-10T03:12:02.119Z,14.58
2018-04-10T03:13:02.138Z,14.57
2018-04-10T03:14:55.067Z,14.46
2018-04-10T03:15:55.070Z,14.40
2018-04-10T03:17:48.969Z,14.33
2018-04-10T03:18:48.991Z,14.45
2018-04-10T03:20:41.922Z,14.32
2018-04-10T03:21:41.919Z,14.27
2018-04-10T03:23:34.944Z,14.33
2018-04-10T03:24:34.868Z,14.29
2018-04-10T03:26:27.754Z,14.39
2018-04-10T03:27:27.779Z,14.28
2018-04-10T03:29:20.739Z,14.42
2018-04-10T03:30:20.701Z,14.42
2018-04-10T03:32:13.606Z,14.28
2018-04-10T03:33:13.627Z,14.35
2018-04-10T03:35:06.553Z,14.17
2018-04-10T03:36:06.556Z,14.21
2018-04-10T03:37:59.474Z,14.20
2018-04-10T03:38:59.497Z,14.18
2018-04-10T03:40:52.418Z,14.12
2018-04-10T03:41:52.423Z,14.10
2018-04-10T03:43:45.361Z,14.12
2018-04-10T03:44:45.362Z,14.17
2018-04-10T03:46:38.256Z,14.04
2018-04-10T03:47:38.276Z,13.96
2018-04-10T03:49:31.338Z,13.87
2018-04-10T03:50:31.342Z,13.92
2018-04-10T03:52:24.247Z,13.87
2018-04-10T03:53:24.268Z,13.84
2018-04-10T03:55:17.191Z,13.85
2018-04-10T03:56:17.195Z,13.89
2018-04-10T03:58:10.104Z,13.73
2018-04-10T03:59:10.124Z,13.78
2018-04-10T04:01:03.047Z,13.75
2018-04-10T04:02:03.050Z,13.77
2018-04-10T04:03:55.982Z,13.57
2018-04-10T04:04:55.978Z,13.67
2018-04-10T04:06:48.879Z,13.52
2018-04-10T04:07:48.898Z,13.69
2018-04-10T04:09:41.822Z,13.70
2018-04-10T04:10:41.825Z,13.66
2018-04-10T04:12:34.731Z,13.63
2018-04-10T04:13:34.748Z,13.59
2018-04-10T04:15:27.678Z,13.69
2018-04-10T04:16:27.815Z,13.52
2018-04-10T04:18:20.585Z,13.59
2018-04-10T04:19:20.607Z,13.51
2018-04-10T04:21:13.534Z,13.64
2018-04-10T04:22:13.531Z,13.69
2018-04-10T04:24:06.473Z,13.66
2018-04-10T04:25:06.457Z,13.64
2018-04-10T04:26:59.360Z,13.66
2018-04-10T04:27:59.382Z,13.57
2018-04-10T04:29:52.308Z,13.64
2018-04-10T04:30:52.312Z,13.66
2018-04-10T04:32:45.216Z,13.70
2018-04-10T04:33:45.235Z,13.66
2018-04-10T04:35:38.159Z,13.63
2018-04-10T04:36:38.165Z,13.64
2018-04-10T04:38:31.068Z,13.60
2018-04-10T04:39:31.087Z,13.59
2018-04-10T04:41:24.011Z,13.57
2018-04-10T04:42:24.012Z,13.55
2018-04-10T04:44:16.961Z,13.57
2018-04-10T04:45:16.940Z,13.59
2018-04-10T04:47:09.878Z,13.64
2018-04-10T04:48:09.879Z,13.75
2018-04-10T04:50:02.798Z,13.66
2018-04-10T04:51:02.801Z,13.64
2018-04-10T04:52:55.703Z,13.69
2018-04-10T04:53:55.724Z,13.75
2018-04-10T04:55:48.644Z,13.71
2018-04-10T04:56:48.648Z,13.75
2018-04-10T04:58:41.548Z,13.71
2018-04-10T04:59:41.570Z,13.73
2018-04-10T05:01:34.493Z,13.82
2018-04-10T05:02:34.496Z,13.78
2018-04-10T05:04:27.402Z,13.92
2018-04-10T05:05:27.423Z,13.84
2018-04-10T05:07:20.354Z,13.96
2018-04-10T05:08:20.388Z,13.88
2018-04-10T05:10:13.281Z,13.89
2018-04-10T05:11:13.284Z,13.99
2018-04-10T05:13:06.192Z,13.96
2018-04-10T05:14:06.213Z,13.96
2018-04-10T05:15:59.137Z,14.02
2018-04-10T05:16:59.140Z,14.06
2018-04-10T05:18:52.049Z,14.18
2018-04-10T05:19:52.065Z,14.24
2018-04-10T05:21:44.988Z,14.17
2018-04-10T05:22:44.991Z,14.28
2018-04-10T05:24:37.895Z,14.33
2018-04-10T05:25:37.916Z,14.33
2018-04-10T05:27:30.845Z,14.40
2018-04-10T05:28:30.846Z,14.40
2018-04-10T05:30:23.770Z,14.32
2018-04-10T05:31:23.775Z,14.42
2018-04-10T05:33:16.679Z,14.46
2018-04-10T05:34:16.698Z,14.51
2018-04-10T05:36:09.619Z,14.52
2018-04-10T05:37:09.624Z,14.54
2018-04-10T05:39:02.527Z,14.39
2018-04-10T05:40:02.547Z,14.45
2018-04-10T05:41:55.470Z,14.45
2018-04-10T05:42:55.473Z,14.47
2018-04-10T05:44:48.382Z,14.42
2018-04-10T05:45:48.401Z,14.52
2018-04-10T05:47:41.330Z,14.55
2018-04-10T05:48:41.331Z,14.57
2018-04-10T05:50:34.254Z,14.61
2018-04-10T05:51:34.259Z,14.69
2018-04-10T05:53:27.163Z,14.77
2018-04-10T05:54:27.188Z,14.73
2018-04-10T05:56:20.111Z,14.80
2018-04-10T05:57:20.114Z,14.95
2018-04-10T05:59:13.021Z,14.88
2018-04-10T06:00:13.042Z,14.95
2018-04-10T06:02:05.967Z,14.95
2018-04-10T06:03:05.968Z,15.10
2018-04-10T06:04:58.874Z,15.21
2018-04-10T06:05:58.896Z,15.29
2018-04-10T06:07:51.818Z,15.47
2018-04-10T06:08:51.826Z,15.54
2018-04-10T06:10:44.746Z,15.80
2018-04-10T06:11:44.749Z,15.78
2018-04-10T06:13:37.658Z,15.97
2018-04-10T06:14:37.681Z,16.12
2018-04-10T06:16:31.098Z,16.23
2018-04-10T06:17:31.103Z,16.25
2018-04-10T06:19:24.017Z,16.35
2018-04-10T06:20:24.037Z,16.43
2018-04-10T06:22:16.965Z,16.63
2018-04-10T06:23:16.966Z,16.64
2018-04-10T06:25:09.879Z,16.67
2018-04-10T06:26:09.902Z,16.75
2018-04-10T06:28:02.863Z,16.91
2018-04-10T06:29:02.862Z,16.96
2018-04-10T06:30:55.790Z,17.15
2018-04-10T06:31:55.794Z,17.11
2018-04-10T06:33:48.702Z,17.28
2018-04-10T06:34:48.725Z,17.30
2018-04-10T06:36:41.653Z,17.56
2018-04-10T06:37:41.658Z,17.64
2018-04-10T06:39:34.712Z,17.72
2018-04-10T06:40:34.739Z,17.89
2018-04-10T06:42:27.664Z,17.97
2018-04-10T06:43:27.671Z,18.12
2018-04-10T06:45:20.943Z,18.21
2018-04-10T06:46:20.605Z,18.32
2018-04-10T06:48:13.534Z,18.50
2018-04-10T06:49:13.538Z,18.55
2018-04-10T06:51:06.466Z,18.60
2018-04-10T06:52:06.472Z,18.72
2018-04-10T06:53:59.878Z,18.63
2018-04-10T06:54:59.905Z,18.63
2018-04-10T06:56:52.833Z,18.63
2018-04-10T06:57:52.838Z,18.57
2018-04-10T06:59:45.752Z,18.58
2018-04-10T07:00:45.777Z,18.51
2018-04-10T07:02:38.708Z,18.48
2018-04-10T07:03:38.714Z,18.51
2018-04-10T07:05:31.626Z,18.26
2018-04-10T07:06:31.652Z,18.21
2018-04-10T07:08:24.580Z,18.30
2018-04-10T07:09:24.587Z,18.20
2018-04-10T07:11:17.518Z,18.26
2018-04-10T07:12:17.521Z,18.25
2018-04-10T07:14:10.437Z,18.33
2018-04-10T07:15:10.466Z,18.27
2018-04-10T07:17:03.389Z,18.29
2018-04-10T07:18:03.396Z,18.35
2018-04-10T07:19:56.313Z,18.36
2018-04-10T07:20:56.346Z,18.30
2018-04-10T07:22:49.272Z,18.21
2018-04-10T07:23:49.283Z,18.36
2018-04-10T07:25:42.186Z,18.27
2018-04-10T07:26:42.208Z,18.33
2018-04-10T07:28:35.138Z,18.25
2018-04-10T07:29:35.144Z,18.20
2018-04-10T07:31:28.077Z,18.10
2018-04-10T07:32:28.087Z,18.18
2018-04-10T07:34:20.992Z,18.23
2018-04-10T07:35:21.018Z,18.27
2018-04-10T07:37:13.946Z,18.23
2018-04-10T07:38:13.954Z,18.33
2018-04-10T07:40:06.866Z,18.57
2018-04-10T07:41:06.888Z,18.73
2018-04-10T07:42:59.822Z,18.85
2018-04-10T07:43:59.827Z,18.94
2018-04-10T07:45:52.738Z,18.85
2018-04-10T07:46:52.762Z,18.94
2018-04-10T07:48:45.701Z,19.07
2018-04-10T07:49:45.707Z,19.29
2018-04-10T07:51:38.638Z,19.33
2018-04-10T07:52:38.650Z,19.37
2018-04-10T07:54:31.562Z,19.46
2018-04-10T07:55:31.589Z,19.55
2018-04-10T07:57:24.516Z,19.55
2018-04-10T07:58:24.522Z,19.56
2018-04-10T08:00:17.434Z,19.71
2018-04-10T08:01:17.467Z,19.65
2018-04-10T08:03:10.391Z,19.80
2018-04-10T08:04:10.399Z,19.80
2018-04-10T08:06:03.312Z,19.81
2018-04-10T08:07:03.336Z,19.88
2018-04-10T08:08:56.272Z,19.99
2018-04-10T08:09:56.274Z,20.05
2018-04-10T08:11:49.208Z,20.13
2018-04-10T08:12:49.221Z,20.28
2018-04-10T08:14:42.134Z,20.38
2018-04-10T08:15:42.161Z,20.47
2018-04-10T08:17:35.089Z,20.35
2018-04-10T08:18:35.096Z,20.33
2018-04-10T08:20:28.012Z,20.42
2018-04-10T08:21:28.041Z,20.35
2018-04-10T08:23:20.966Z,20.32
2018-04-10T08:24:20.972Z,20.43
2018-04-10T08:26:13.889Z,20.52
2018-04-10T08:27:13.915Z,20.59
2018-04-10T08:29:06.847Z,20.58
2018-04-10T08:30:06.852Z,20.67
2018-04-10T08:31:59.781Z,20.82
2018-04-10T08:32:59.788Z,20.69
2018-04-10T08:34:52.704Z,20.57
2018-04-10T08:35:52.735Z,20.61
2018-04-10T08:37:45.663Z,20.72
2018-04-10T08:38:45.674Z,20.76
2018-04-10T08:40:38.588Z,20.80
2018-04-10T08:41:38.615Z,20.94
2018-04-10T08:43:31.546Z,20.97
2018-04-10T08:44:31.558Z,21.03
2018-04-10T08:46:24.467Z,20.98
2018-04-10T08:47:24.496Z,20.89
2018-04-10T08:49:17.426Z,20.98
2018-04-10T08:50:17.433Z,21.03
2018-04-10T08:52:10.364Z,20.98
2018-04-10T08:53:10.371Z,21.06
2018-04-10T08:55:03.288Z,21.19
2018-04-10T08:56:03.320Z,21.14
2018-04-10T08:57:56.252Z,21.01
2018-04-10T08:58:56.259Z,21.04
2018-04-10T09:00:49.352Z,21.06
2018-04-10T09:01:49.377Z,21.06
2018-04-10T09:03:42.308Z,21.01
2018-04-10T09:04:42.318Z,20.99
2018-04-10T09:06:35.233Z,21.06
2018-04-10T09:07:35.262Z,21.01
2018-04-10T09:09:28.191Z,21.16
2018-04-10T09:10:28.197Z,21.19
2018-04-10T09:12:21.130Z,21.25
2018-04-10T09:13:21.144Z,21.22
2018-04-10T09:15:14.050Z,21.43
2018-04-10T09:16:14.087Z,21.50
2018-04-10T09:18:07.012Z,21.53
2018-04-10T09:19:07.020Z,21.61
2018-04-10T09:20:59.935Z,21.62
2018-04-10T09:21:59.967Z,21.67
2018-04-10T09:23:52.897Z,21.69
2018-04-10T09:24:52.904Z,21.72
2018-04-10T09:26:45.821Z,21.67
2018-04-10T09:27:45.850Z,21.67
2018-04-10T09:29:38.779Z,21.67
2018-04-10T09:30:38.786Z,21.53
2018-04-10T09:32:31.721Z,21.49
2018-04-10T09:33:31.733Z,21.38
2018-04-10T09:35:24.647Z,21.47
2018-04-10T09:36:24.671Z,21.35
2018-04-10T09:38:17.613Z,21.46
2018-04-10T09:39:17.616Z,21.38
2018-04-10T09:41:10.531Z,21.28
2018-04-10T09:42:10.563Z,21.27
2018-04-10T09:44:03.495Z,21.25
2018-04-10T09:45:03.502Z,21.22
2018-04-10T09:46:56.412Z,21.01
2018-04-10T09:47:56.447Z,21.04
2018-04-10T09:49:49.372Z,20.99
2018-04-10T09:50:49.386Z,21.07
2018-04-10T09:52:42.316Z,21.01
2018-04-10T09:53:42.328Z,21.12
2018-04-10T09:55:35.239Z,21.28
2018-04-10T09:56:35.268Z,21.29
2018-04-10T09:58:28.197Z,21.31
2018-04-10T09:59:28.205Z,21.25
2018-04-10T10:01:21.130Z,21.29
2018-04-10T10:02:21.157Z,21.31
2018-04-10T10:04:14.097Z,21.58
2018-04-10T10:05:14.103Z,21.54
2018-04-10T10:07:07.016Z,21.44
2018-04-10T10:08:07.049Z,21.58
2018-04-10T10:09:59.977Z,21.86
2018-04-10T10:10:59.981Z,21.90
2018-04-10T10:12:52.924Z,21.96
2018-04-10T10:13:52.921Z,21.99
2018-04-10T10:15:45.838Z,22.00
2018-04-10T10:16:45.867Z,21.98
2018-04-10T10:18:38.794Z,21.88
2018-04-10T10:19:38.804Z,21.77
2018-04-10T10:21:31.717Z,21.79
2018-04-10T10:22:31.746Z,21.75
2018-04-10T10:24:24.680Z,21.88
2018-04-10T10:25:24.690Z,21.88
2018-04-10T10:27:17.606Z,22.02
2018-04-10T10:28:17.638Z,22.00
2018-04-10T10:30:10.564Z,22.02
2018-04-10T10:31:10.572Z,22.12
2018-04-10T10:33:03.552Z,22.22
2018-04-10T10:34:03.518Z,22.27
2018-04-10T10:35:56.427Z,22.35
2018-04-10T10:36:56.455Z,22.46
2018-04-10T10:38:49.388Z,22.65
2018-04-10T10:39:49.399Z,22.80
2018-04-10T10:41:42.312Z,22.80
2018-04-10T10:42:42.344Z,22.83
2018-04-10T10:44:35.276Z,22.97
2018-04-10T10:45:35.285Z,22.98
2018-04-10T10:47:28.199Z,22.92
2018-04-10T10:48:28.233Z,22.91
2018-04-10T10:50:21.163Z,22.97
2018-04-10T10:51:21.174Z,22.97
2018-04-10T10:53:14.137Z,23.05
2018-04-10T10:54:14.119Z,23.05
2018-04-10T10:56:07.034Z,23.25
2018-04-10T10:57:07.065Z,23.12
2018-04-10T10:58:59.994Z,23.04
2018-04-10T11:00:00.007Z,22.97
2018-04-10T11:01:52.918Z,22.76
2018-04-10T11:02:52.950Z,22.67
2018-04-10T11:04:45.883Z,22.82
2018-04-10T11:05:45.892Z,22.79
2018-04-10T11:07:38.809Z,22.65
2018-04-10T11:08:38.838Z,22.65
2018-04-10T11:10:31.773Z,22.68
2018-04-10T11:11:31.783Z,22.70
2018-04-10T11:13:24.865Z,22.67
2018-04-10T11:14:24.871Z,22.72
2018-04-10T11:16:17.790Z,22.68
2018-04-10T11:17:24.938Z,22.67
2018-04-10T11:19:10.752Z,22.85
2018-04-10T11:20:10.804Z,22.91
2018-04-10T11:22:03.679Z,23.13
2018-04-10T11:23:03.717Z,23.13
2018-04-10T11:24:56.642Z,23.07
2018-04-10T11:25:56.654Z,23.00
2018-04-10T11:27:49.570Z,22.90
2018-04-10T11:28:49.599Z,22.97
2018-04-10T11:30:42.533Z,22.94
2018-04-10T11:31:42.545Z,23.02
2018-04-10T11:33:35.479Z,23.05
2018-04-10T11:34:35.490Z,23.10
2018-04-10T11:36:28.406Z,23.07
2018-04-10T11:37:28.434Z,23.01
2018-04-10T11:39:21.379Z,22.91
2018-04-10T11:40:21.385Z,23.00
2018-04-10T11:42:14.301Z,23.12
2018-04-10T11:43:14.327Z,23.07
2018-04-10T11:45:07.270Z,23.15
2018-04-10T11:46:07.276Z,23.02
2018-04-10T11:48:01.185Z,23.04
2018-04-10T11:49:01.212Z,23.02
2018-04-10T11:50:54.151Z,23.07
2018-04-10T11:51:54.215Z,23.07
2018-04-10T11:53:47.097Z,22.90
2018-04-10T11:54:47.107Z,22.92
2018-04-10T11:56:40.220Z,23.09
2018-04-10T11:57:40.053Z,23.12
2018-04-10T11:59:32.986Z,23.12
2018-04-10T12:00:32.997Z,23.13
2018-04-10T12:02:25.916Z,23.20
2018-04-10T12:03:25.943Z,23.20
2018-04-10T12:05:18.882Z,23.27
2018-04-10T12:06:18.891Z,23.31
2018-04-10T12:08:11.851Z,23.38
2018-04-10T12:09:11.839Z,23.51
2018-04-10T12:11:04.772Z,23.50
2018-04-10T12:12:04.784Z,23.51
2018-04-10T12:13:57.803Z,23.46
2018-04-10T12:14:57.728Z,23.57
2018-04-10T12:16:50.641Z,23.47
2018-04-10T12:17:50.674Z,23.38
2018-04-10T12:19:43.603Z,23.39
2018-04-10T12:20:43.617Z,23.42
2018-04-10T12:22:36.529Z,23.40
2018-04-10T12:23:36.560Z,23.48
2018-04-10T12:25:29.496Z,23.51
2018-04-10T12:26:29.507Z,23.54
2018-04-10T12:28:22.422Z,23.55
2018-04-10T12:29:22.451Z,23.60
2018-04-10T12:31:15.389Z,23.48
2018-04-10T12:32:15.396Z,23.46
2018-04-10T12:34:08.333Z,23.46
2018-04-10T12:35:08.345Z,23.36
2018-04-10T12:37:01.265Z,23.46
2018-04-10T12:38:01.290Z,23.47
2018-04-10T12:39:54.239Z,23.40
2018-04-10T12:40:54.251Z,23.47
2018-04-10T12:42:47.170Z,23.53
2018-04-10T12:43:47.198Z,23.55
2018-04-10T12:45:40.134Z,23.60
2018-04-10T12:46:40.144Z,23.55
2018-04-10T12:48:33.060Z,23.60
2018-04-10T12:49:33.089Z,23.65
2018-04-10T12:51:26.026Z,23.70
2018-04-10T12:52:26.036Z,23.72
2018-04-10T12:54:18.970Z,23.68
2018-04-10T12:55:18.980Z,23.68
2018-04-10T12:57:11.900Z,23.60
2018-04-10T12:58:11.927Z,23.73
2018-04-10T13:00:04.862Z,23.55
2018-04-10T13:01:04.874Z,23.60
2018-04-10T13:02:57.789Z,23.57
2018-04-10T13:03:57.819Z,23.55
2018-04-10T13:05:50.755Z,23.66
2018-04-10T13:06:50.765Z,23.58
2018-04-10T13:08:43.681Z,23.53
2018-04-10T13:09:43.715Z,23.48
2018-04-10T13:11:36.651Z,23.43
2018-04-10T13:12:36.661Z,23.48
2018-04-10T13:14:29.604Z,23.60
2018-04-10T13:15:29.610Z,23.53
2018-04-10T13:17:22.528Z,23.55
2018-04-10T13:18:22.550Z,23.66
2018-04-10T13:20:15.992Z,23.66
2018-04-10T13:21:16.002Z,23.58
2018-04-10T13:23:08.918Z,23.61
2018-04-10T13:24:08.947Z,23.55
2018-04-10T13:26:01.884Z,23.51
2018-04-10T13:27:01.897Z,23.42
2018-04-10T13:28:54.812Z,23.53
2018-04-10T13:29:54.840Z,23.51
2018-04-10T13:31:47.788Z,23.55
2018-04-10T13:32:47.789Z,23.53
2018-04-10T13:34:40.721Z,23.54
2018-04-10T13:35:40.733Z,23.51
2018-04-10T13:37:33.648Z,23.55
2018-04-10T13:38:33.679Z,23.39
2018-04-10T13:40:26.610Z,23.57
2018-04-10T13:41:26.625Z,23.65
2018-04-10T13:43:19.537Z,23.55
2018-04-10T13:44:19.574Z,23.58
2018-04-10T13:46:12.505Z,23.58
2018-04-10T13:47:12.513Z,23.61
2018-04-10T13:49:05.432Z,23.70
2018-04-10T13:50:05.462Z,23.73
2018-04-10T13:51:58.395Z,23.68
2018-04-10T13:52:58.408Z,23.72
2018-04-10T13:54:51.346Z,23.70
2018-04-10T13:55:51.354Z,23.70
2018-04-10T13:57:44.272Z,23.75
2018-04-10T13:58:44.301Z,23.79
2018-04-10T14:00:37.257Z,23.87
2018-04-10T14:01:37.263Z,23.78
2018-04-10T14:03:30.182Z,23.75
2018-04-10T14:04:30.210Z,23.78
2018-04-10T14:06:23.148Z,23.76
2018-04-10T14:07:23.159Z,23.73
2018-04-10T14:09:16.075Z,23.70
2018-04-10T14:10:16.106Z,23.61
2018-04-10T14:12:09.044Z,23.65
2018-04-10T14:13:09.053Z,23.72
2018-04-10T14:15:01.991Z,23.60
2018-04-10T14:16:02.001Z,23.61
2018-04-10T14:17:54.918Z,23.55
2018-04-10T14:18:54.948Z,23.51
2018-04-10T14:20:47.883Z,23.43
2018-04-10T14:21:47.895Z,23.53
2018-04-10T14:23:40.810Z,23.50
2018-04-10T14:24:40.843Z,23.54
2018-04-10T14:26:33.773Z,23.65
2018-04-10T14:27:33.781Z,23.69
2018-04-10T14:29:26.700Z,23.60
2018-04-10T14:30:26.733Z,23.58
2018-04-10T14:32:19.669Z,23.43
2018-04-10T14:33:19.677Z,23.48
2018-04-10T14:35:12.615Z,23.53
2018-04-10T14:36:12.627Z,23.53
2018-04-10T14:38:05.554Z,23.57
2018-04-10T14:39:05.574Z,23.65
2018-04-10T14:40:58.509Z,23.51
2018-04-10T14:41:58.521Z,23.47
2018-04-10T14:43:51.442Z,23.73
2018-04-10T14:44:51.469Z,23.80
2018-04-10T14:46:44.409Z,23.90
2018-04-10T14:47:44.417Z,24.08
2018-04-10T14:49:37.336Z,24.22
2018-04-10T14:50:37.370Z,24.28
2018-04-10T14:52:30.297Z,24.31
2018-04-10T14:53:30.347Z,24.28
2018-04-10T14:55:23.245Z,24.39
2018-04-10T14:56:23.262Z,24.24
2018-04-10T14:58:16.205Z,24.22
2018-04-10T14:59:16.229Z,24.00
2018-04-10T15:01:09.169Z,24.05
2018-04-10T15:02:09.179Z,23.91
2018-04-10T15:04:02.098Z,23.80
2018-04-10T15:05:02.137Z,23.75
2018-04-10T15:06:55.789Z,23.60
2018-04-10T15:07:55.077Z,23.55
2018-04-10T15:09:48.072Z,23.32
2018-04-10T15:10:48.021Z,23.36
2018-04-10T15:12:40.958Z,23.46
2018-04-10T15:13:40.965Z,23.51
2018-04-10T15:15:33.901Z,23.48
2018-04-10T15:16:33.910Z,23.50
2018-04-10T15:18:26.830Z,23.51
2018-04-10T15:19:26.859Z,23.57
2018-04-10T15:21:19.795Z,23.51
2018-04-10T15:22:19.809Z,23.51
2018-04-10T15:24:12.729Z,23.43
2018-04-10T15:25:12.756Z,23.39
2018-04-10T15:27:05.689Z,23.47
2018-04-10T15:28:05.719Z,23.40
2018-04-10T15:29:58.620Z,23.42
2018-04-10T15:30:58.647Z,23.39
2018-04-10T15:32:51.580Z,23.47
2018-04-10T15:33:51.608Z,23.48
2018-04-10T15:35:44.530Z,23.55
2018-04-10T15:36:44.549Z,23.48
2018-04-10T15:38:37.458Z,23.50
2018-04-10T15:39:37.531Z,23.48
2018-04-10T15:41:30.618Z,23.43
2018-04-10T15:42:30.627Z,23.33
2018-04-10T15:44:23.545Z,23.28
2018-04-10T15:45:23.575Z,23.27
2018-04-10T15:47:16.506Z,23.28
2018-04-10T15:48:16.521Z,23.23
2018-04-10T15:50:09.433Z,23.12
2018-04-10T15:51:09.462Z,23.02
2018-04-10T15:53:02.394Z,23.23
2018-04-10T15:54:02.406Z,23.10
2018-04-10T15:55:55.343Z,23.22
2018-04-10T15:56:55.351Z,23.16
2018-04-10T15:58:48.265Z,23.16
2018-04-10T15:59:48.296Z,23.19
2018-04-10T16:01:41.232Z,23.17
2018-04-10T16:02:41.287Z,23.23
2018-04-10T16:04:34.243Z,23.19
2018-04-10T16:05:34.194Z,23.22
2018-04-10T16:07:27.140Z,23.25
2018-04-10T16:08:27.142Z,23.20
2018-04-10T16:10:20.066Z,23.23
2018-04-10T16:11:20.094Z,23.20
2018-04-10T16:13:13.030Z,23.19
2018-04-10T16:14:13.040Z,23.38
2018-04-10T16:16:05.973Z,23.27
2018-04-10T16:17:05.985Z,23.40
2018-04-10T16:18:58.901Z,23.46
2018-04-10T16:19:58.929Z,23.43
2018-04-10T16:21:51.887Z,23.35
2018-04-10T16:22:51.878Z,23.43
2018-04-10T16:24:44.799Z,23.35
2018-04-10T16:25:44.823Z,23.36
2018-04-10T16:27:37.772Z,23.28
2018-04-10T16:28:37.781Z,23.17
2018-04-10T16:30:30.701Z,23.10
2018-04-10T16:31:30.729Z,23.16
2018-04-10T16:33:23.663Z,23.19
2018-04-10T16:34:23.695Z,23.16
2018-04-10T16:36:16.611Z,23.23
2018-04-10T16:37:16.624Z,23.22
2018-04-10T16:39:09.533Z,23.20
2018-04-10T16:40:09.570Z,23.23
2018-04-10T16:42:02.497Z,23.23
2018-04-10T16:43:02.509Z,23.25
2018-04-10T16:44:55.425Z,23.19
2018-04-10T16:45:55.454Z,23.25
2018-04-10T16:47:48.416Z,23.27
2018-04-10T16:48:48.431Z,23.35
2018-04-10T16:50:41.320Z,23.35
2018-04-10T16:51:41.375Z,23.36
2018-04-10T16:53:34.285Z,23.17
2018-04-10T16:54:34.293Z,23.28
2018-04-10T16:56:27.229Z,23.25
2018-04-10T16:57:27.241Z,23.28
2018-04-10T16:59:20.157Z,23.27
2018-04-10T17:00:20.184Z,23.27
2018-04-10T17:02:13.116Z,23.20
2018-04-10T17:03:13.201Z,23.27
2018-04-10T17:05:06.040Z,23.23
2018-04-10T17:06:06.072Z,23.23
2018-04-10T17:07:59.013Z,23.25
2018-04-10T17:08:59.016Z,23.22
2018-04-10T17:10:51.931Z,23.20
2018-04-10T17:11:51.960Z,23.27
2018-04-10T17:13:44.927Z,23.28
2018-04-10T17:14:44.945Z,23.28
2018-04-10T17:16:37.836Z,23.31
2018-04-10T17:17:37.848Z,23.28
2018-04-10T17:19:30.792Z,23.31
2018-04-10T17:20:30.794Z,23.20
2018-04-10T17:22:23.726Z,23.16
2018-04-10T17:23:23.739Z,23.15
2018-04-10T17:25:16.690Z,22.95
2018-04-10T17:26:16.706Z,22.98
2018-04-10T17:28:09.620Z,22.88
2018-04-10T17:29:09.627Z,22.88
2018-04-10T17:31:02.544Z,22.82
2018-04-10T17:32:02.569Z,22.70
2018-04-10T17:33:55.503Z,22.65
2018-04-10T17:34:55.521Z,22.70
2018-04-10T17:36:48.446Z,22.55
2018-04-10T17:37:48.454Z,22.58
2018-04-10T17:39:41.372Z,22.43
2018-04-10T17:40:41.402Z,22.45
2018-04-10T17:42:34.355Z,22.33
2018-04-10T17:43:34.377Z,22.35
2018-04-10T17:45:27.253Z,22.33
2018-04-10T17:46:27.285Z,22.28
2018-04-10T17:48:20.336Z,22.21
2018-04-10T17:49:20.493Z,22.30
2018-04-10T17:51:13.195Z,22.27
2018-04-10T17:52:13.203Z,22.22
2018-04-10T17:54:06.585Z,22.22
2018-04-10T17:55:06.441Z,22.20
2018-04-10T17:56:59.262Z,22.14
2018-04-10T17:57:59.281Z,22.07
2018-04-10T17:59:52.179Z,22.14
2018-04-10T18:00:52.227Z,22.10
2018-04-10T18:02:45.144Z,22.14
2018-04-10T18:03:45.245Z,22.02
2018-04-10T18:05:38.065Z,21.99
2018-04-10T18:06:38.088Z,22.02
2018-04-10T18:08:31.021Z,21.91
2018-04-10T18:09:31.032Z,21.90
2018-04-10T18:11:23.943Z,21.80
2018-04-10T18:12:23.978Z,21.80
2018-04-10T18:14:16.915Z,21.80
2018-04-10T18:15:16.915Z,21.80
2018-04-10T18:17:09.906Z,21.71
2018-04-10T18:18:09.861Z,21.54
2018-04-10T18:20:02.834Z,21.62
2018-04-10T18:21:02.804Z,21.47
2018-04-10T18:22:55.737Z,21.61
2018-04-10T18:23:55.770Z,21.53
2018-04-10T18:25:48.665Z,21.43
2018-04-10T18:26:48.689Z,21.47
2018-04-10T18:28:41.625Z,21.38
2018-04-10T18:29:41.640Z,21.37
2018-04-10T18:31:34.601Z,21.25
2018-04-10T18:32:34.595Z,21.22
2018-04-10T18:34:27.512Z,21.28